Time;durP1;ratioP1;P1;durP2;ratioP2;P2;SDS_P1;SDS_P2;PMS_P1;PMS_P2;Temp;Humidity;BMP_temperature;BMP_pressure;BME280_temperature;BME280_humidity;BME280_pressure;Samples;Min_cycle;Max_cycle;Signal;HPM_P1;HPM_P2
2022/08/15 00:02:17;;;;;;;10.80;5.70;;;24.90;99.90;;;;;;4992895;28;20981;-73
2022/08/15 00:04:44;;;;;;;6.40;5.57;;;24.90;99.90;;;;;;4996715;28;20860;-72
2022/08/15 00:07:10;;;;;;;5.93;5.03;;;24.80;99.90;;;;;;4983098;28;20466;-73
2022/08/15 00:09:37;;;;;;;5.77;5.20;;;24.70;99.90;;;;;;4985718;28;20464;-73
2022/08/15 00:12:04;;;;;;;7.10;5.77;;;24.60;99.90;;;;;;4989159;28;20463;-73
2022/08/15 00:14:35;;;;;;;8.00;5.33;;;24.70;99.90;;;;;;4983786;28;20478;-73
2022/08/15 00:17:09;;;;;;;6.20;5.60;;;24.60;99.90;;;;;;4986920;28;21012;-72
2022/08/15 00:19:40;;;;;;;12.93;5.70;;;24.60;99.90;;;;;;4990901;28;20458;-73
2022/08/15 00:22:09;;;;;;;6.30;5.23;;;24.50;99.90;;;;;;4984730;28;20463;-73
2022/08/15 00:24:37;;;;;;;6.17;5.23;;;24.50;99.90;;;;;;4995794;28;21077;-73
2022/08/15 00:27:08;;;;;;;8.90;6.00;;;24.50;99.90;;;;;;4994101;28;20836;-73
2022/08/15 00:29:36;;;;;;;10.40;8.30;;;24.50;99.90;;;;;;4996543;28;20455;-73
2022/08/15 00:32:04;;;;;;;9.20;5.90;;;24.40;99.90;;;;;;4987314;28;20468;-74
2022/08/15 00:34:31;;;;;;;5.70;5.10;;;24.40;99.90;;;;;;4995242;28;20487;-73
2022/08/15 00:37:00;;;;;;;5.77;4.90;;;24.10;99.90;;;;;;4986197;28;20464;-73
2022/08/15 00:39:29;;;;;;;8.53;5.80;;;23.90;99.90;;;;;;4969448;28;20540;-72
2022/08/15 00:42:00;;;;;;;6.13;5.53;;;24.20;99.90;;;;;;4990034;28;20916;-73
2022/08/15 00:44:33;;;;;;;7.63;6.80;;;24.30;99.90;;;;;;4990633;28;20511;-73
2022/08/15 00:47:04;;;;;;;9.13;6.93;;;24.40;99.90;;;;;;4990578;28;20456;-72
2022/08/15 00:49:34;;;;;;;6.57;5.60;;;24.50;99.90;;;;;;4991607;28;20468;-73
2022/08/15 00:52:08;;;;;;;6.37;5.17;;;24.50;99.90;;;;;;4983204;28;20470;-72
2022/08/15 00:54:38;;;;;;;9.23;5.53;;;24.50;99.90;;;;;;4995294;28;20537;-73
2022/08/15 00:57:09;;;;;;;8.73;6.20;;;24.50;99.90;;;;;;4986507;28;20464;-72
2022/08/15 00:59:41;;;;;;;5.73;5.13;;;24.50;99.90;;;;;;4978571;28;20459;-73
2022/08/15 01:02:12;;;;;;;8.60;5.57;;;24.50;99.90;;;;;;4979636;28;20470;-73
2022/08/15 01:04:39;;;;;;;6.67;6.03;;;24.60;99.90;;;;;;4993319;28;20501;-73
2022/08/15 01:07:08;;;;;;;7.30;5.57;;;24.50;99.90;;;;;;4994515;28;20470;-73
2022/08/15 01:09:36;;;;;;;7.03;5.30;;;24.30;99.90;;;;;;4999531;28;20456;-72
2022/08/15 01:12:07;;;;;;;10.40;6.07;;;24.30;99.90;;;;;;4999885;28;20467;-73
2022/08/15 01:14:36;;;;;;;6.40;5.70;;;24.50;99.90;;;;;;5000320;28;20486;-73
2022/08/15 01:17:06;;;;;;;6.60;5.90;;;24.50;99.90;;;;;;4992638;28;20466;-73
2022/08/15 01:19:37;;;;;;;10.30;5.33;;;24.60;99.90;;;;;;4993723;28;20455;-73
2022/08/15 01:22:23;;;;;;;8.93;5.80;;;24.70;99.90;;;;;;4992246;28;20456;-73
2022/08/15 01:24:59;;;;;;;6.63;5.90;;;24.70;99.90;;;;;;4994839;28;20587;-73
2022/08/15 01:27:33;;;;;;;5.90;5.33;;;24.60;99.90;;;;;;4997463;28;20592;-73
2022/08/15 01:30:01;;;;;;;7.07;5.60;;;24.60;99.90;;;;;;4987548;28;20584;-72
2022/08/15 01:32:28;;;;;;;7.10;6.03;;;24.60;99.90;;;;;;4999444;28;21011;-72
2022/08/15 01:34:55;;;;;;;8.20;6.27;;;24.70;99.90;;;;;;4995830;28;20483;-73
2022/08/15 01:37:22;;;;;;;5.47;4.93;;;24.80;99.90;;;;;;4998718;28;20486;-72
2022/08/15 01:39:57;;;;;;;5.60;5.03;;;24.90;99.90;;;;;;4996147;28;20475;-72
2022/08/15 01:42:32;;;;;;;7.97;5.23;;;24.90;99.90;;;;;;4992653;28;20460;-73
2022/08/15 01:45:05;;;;;;;8.13;5.70;;;25.00;99.90;;;;;;4999024;28;21525;-73
2022/08/15 01:47:37;;;;;;;8.30;5.57;;;24.90;99.90;;;;;;4989650;28;20886;-73
2022/08/15 01:50:09;;;;;;;6.10;4.93;;;24.70;99.90;;;;;;4998254;28;20907;-72
2022/08/15 01:52:39;;;;;;;7.37;6.00;;;24.30;99.90;;;;;;4992768;28;21102;-73
2022/08/15 01:55:07;;;;;;;8.50;6.40;;;24.10;99.90;;;;;;4994715;28;20462;-73
2022/08/15 01:57:35;;;;;;;7.63;5.50;;;23.90;99.90;;;;;;4994793;28;20483;-73
2022/08/15 02:00:03;;;;;;;7.77;6.10;;;23.90;99.90;;;;;;4987231;28;20464;-74
2022/08/15 02:02:30;;;;;;;6.87;4.77;;;23.90;99.90;;;;;;4990182;28;20956;-72
2022/08/15 02:04:57;;;;;;;5.80;5.30;;;24.10;99.90;;;;;;4991602;28;21370;-74
2022/08/15 02:07:28;;;;;;;8.63;6.07;;;24.30;99.90;;;;;;4998878;28;20551;-73
2022/08/15 02:09:56;;;;;;;11.13;6.30;;;24.20;99.90;;;;;;4995589;28;20505;-73
2022/08/15 02:12:31;;;;;;;6.80;5.93;;;24.30;99.90;;;;;;4996981;28;20474;-74
2022/08/15 02:15:01;;;;;;;8.83;6.87;;;24.40;99.90;;;;;;4995439;28;20863;-73
2022/08/15 02:17:28;;;;;;;6.00;5.40;;;24.50;99.90;;;;;;4993470;28;20468;-72
2022/08/15 02:19:55;;;;;;;7.40;5.40;;;24.20;99.90;;;;;;4998111;28;20841;-72
2022/08/15 02:22:25;;;;;;;7.33;5.47;;;23.90;99.90;;;;;;4995757;28;20463;-72
2022/08/15 02:24:51;;;;;;;6.33;5.70;;;23.70;99.90;;;;;;5040055;22;20511;-68
2022/08/15 02:27:18;;;;;;;8.33;5.33;;;23.90;99.90;;;;;;5033159;28;20460;-69
2022/08/15 02:29:45;;;;;;;6.07;5.47;;;24.10;99.90;;;;;;5034993;28;21008;-68
2022/08/15 02:32:18;;;;;;;7.20;5.47;;;23.80;99.90;;;;;;5028139;28;20483;-68
2022/08/15 02:34:48;;;;;;;7.87;5.60;;;23.90;99.90;;;;;;5023202;28;20486;-69
2022/08/15 02:37:18;;;;;;;6.33;5.40;;;23.80;99.90;;;;;;5010589;28;20551;-69
2022/08/15 02:39:46;;;;;;;8.30;6.00;;;23.80;99.90;;;;;;5013443;28;20486;-69
2022/08/15 02:42:14;;;;;;;6.80;5.33;;;23.60;99.90;;;;;;5011480;28;20459;-68
2022/08/15 02:44:41;;;;;;;6.43;5.73;;;23.60;99.90;;;;;;5008570;28;20486;-69
2022/08/15 02:47:09;;;;;;;6.70;6.00;;;23.50;99.90;;;;;;5020338;28;20449;-68
2022/08/15 02:49:37;;;;;;;5.77;4.30;;;23.60;99.90;;;;;;5012811;28;20902;-68
2022/08/15 02:52:06;;;;;;;7.10;5.87;;;23.70;99.90;;;;;;5007119;28;20542;-68
2022/08/15 02:54:33;;;;;;;4.90;4.30;;;23.70;99.90;;;;;;5010701;28;20509;-69
2022/08/15 02:57:00;;;;;;;7.20;6.00;;;23.80;99.90;;;;;;5011076;28;20624;-69
2022/08/15 02:59:28;;;;;;;5.77;4.40;;;24.00;99.90;;;;;;5011645;28;20560;-69
2022/08/15 03:01:57;;;;;;;8.47;6.43;;;24.30;99.90;;;;;;5015319;28;20463;-68
2022/08/15 03:04:25;;;;;;;6.30;5.70;;;24.30;99.90;;;;;;5015275;28;20478;-69
2022/08/15 03:06:56;;;;;;;5.63;4.97;;;24.20;99.90;;;;;;5009913;28;20993;-68
2022/08/15 03:09:23;;;;;;;6.47;5.87;;;24.50;99.90;;;;;;5010396;28;20564;-68
2022/08/15 03:11:50;;;;;;;5.83;5.23;;;24.40;99.90;;;;;;5007370;28;20466;-69
2022/08/15 03:14:20;;;;;;;6.43;5.73;;;24.60;99.90;;;;;;5012957;28;20491;-69
2022/08/15 03:16:49;;;;;;;6.33;5.10;;;24.50;99.90;;;;;;5016032;28;20462;-69
2022/08/15 03:19:19;;;;;;;7.00;5.67;;;24.50;99.90;;;;;;5009510;28;20712;-69
2022/08/15 03:21:46;;;;;;;10.37;5.30;;;24.30;99.90;;;;;;5004474;28;20449;-69
2022/08/15 03:24:15;;;;;;;5.50;4.40;;;24.30;99.90;;;;;;5001807;28;20672;-69
2022/08/15 03:26:46;;;;;;;5.50;5.00;;;24.20;99.90;;;;;;5005048;28;20474;-69
2022/08/15 03:29:15;;;;;;;7.93;5.17;;;24.30;99.90;;;;;;5008107;28;20685;-69
2022/08/15 03:31:42;;;;;;;5.77;5.20;;;24.30;99.90;;;;;;5010079;28;20811;-69
2022/08/15 03:34:09;;;;;;;6.40;5.50;;;24.30;99.90;;;;;;5009249;28;20497;-67
2022/08/15 03:36:37;;;;;;;5.17;4.40;;;24.40;99.90;;;;;;5019811;28;20460;-70
2022/08/15 03:39:04;;;;;;;8.40;5.83;;;24.30;99.90;;;;;;5007131;28;20489;-69
2022/08/15 03:41:35;;;;;;;9.10;6.73;;;24.30;99.90;;;;;;5009890;28;20458;-69
2022/08/15 03:44:02;;;;;;;6.77;6.07;;;24.30;99.90;;;;;;5011720;28;20540;-69
2022/08/15 03:46:29;;;;;;;6.73;4.50;;;24.30;99.90;;;;;;5016525;28;20836;-70
2022/08/15 03:48:57;;;;;;;6.13;5.00;;;24.40;99.90;;;;;;5014458;28;20470;-70
2022/08/15 03:51:26;;;;;;;7.70;6.50;;;24.40;99.90;;;;;;5003736;28;20539;-69
2022/08/15 03:53:58;;;;;;;9.07;5.83;;;24.40;99.90;;;;;;5025113;28;20856;-69
2022/08/15 03:56:28;;;;;;;15.60;6.60;;;24.50;99.90;;;;;;5042539;28;20810;-69
2022/08/15 03:58:58;;;;;;;8.77;4.80;;;24.40;99.90;;;;;;5044048;28;20477;-69
2022/08/15 04:01:27;;;;;;;13.90;5.90;;;24.40;99.90;;;;;;5039130;28;20473;-69
2022/08/15 04:03:54;;;;;;;14.00;6.00;;;24.30;99.90;;;;;;5047800;28;20859;-69
2022/08/15 04:06:24;;;;;;;23.40;6.07;;;24.10;99.90;;;;;;5024113;28;20974;-69
2022/08/15 04:08:53;;;;;;;14.63;6.80;;;23.90;99.90;;;;;;5039695;28;20458;-68
2022/08/15 04:11:23;;;;;;;15.50;6.20;;;23.80;99.90;;;;;;5036912;28;20465;-68
2022/08/15 04:13:50;;;;;;;13.07;6.43;;;23.70;99.90;;;;;;5041335;28;20484;-67
2022/08/15 04:16:19;;;;;;;11.50;6.47;;;23.70;99.90;;;;;;5041165;28;20475;-67
2022/08/15 04:18:46;;;;;;;15.30;5.63;;;23.80;99.90;;;;;;5034056;28;20484;-68
2022/08/15 04:21:14;;;;;;;12.63;6.00;;;23.90;99.90;;;;;;5039877;28;21106;-68
2022/08/15 04:23:43;;;;;;;8.50;5.83;;;23.90;99.90;;;;;;5048108;28;20804;-68
2022/08/15 04:26:10;;;;;;;8.33;4.90;;;23.80;99.90;;;;;;5045401;28;20466;-68
2022/08/15 04:28:37;;;;;;;13.30;5.23;;;23.80;99.90;;;;;;5041418;28;20489;-67
2022/08/15 04:31:08;;;;;;;10.40;5.23;;;23.80;99.90;;;;;;5068865;28;20462;-68
2022/08/15 04:33:37;;;;;;;31.40;7.33;;;23.90;99.90;;;;;;5058191;28;21007;-69
2022/08/15 04:36:09;;;;;;;10.27;6.57;;;23.90;99.90;;;;;;5059517;28;21215;-68
2022/08/15 04:38:36;;;;;;;12.07;6.90;;;23.80;99.90;;;;;;5052710;28;20997;-68
2022/08/15 04:41:05;;;;;;;10.57;6.53;;;23.80;99.90;;;;;;5052304;28;20466;-69
2022/08/15 04:43:33;;;;;;;7.27;5.90;;;23.80;99.90;;;;;;5057578;28;20732;-68
2022/08/15 04:46:00;;;;;;;6.90;5.10;;;23.80;99.90;;;;;;5049280;28;20840;-68
2022/08/15 04:48:27;;;;;;;6.23;4.40;;;23.80;99.90;;;;;;5058762;28;20467;-68
2022/08/15 04:50:58;;;;;;;6.93;5.83;;;23.90;99.90;;;;;;5068833;28;20548;-68
2022/08/15 04:53:27;;;;;;;4.50;3.63;;;23.90;99.90;;;;;;5062683;28;20483;-69
2022/08/15 04:55:56;;;;;;;13.17;5.87;;;24.10;99.90;;;;;;5059522;28;20487;-69
2022/08/15 04:58:23;;;;;;;8.87;5.40;;;24.20;99.90;;;;;;5061932;28;20888;-69
2022/08/15 05:00:56;;;;;;;9.10;6.43;;;24.20;99.90;;;;;;5059455;28;20952;-68
2022/08/15 05:03:24;;;;;;;9.63;4.40;;;24.30;99.90;;;;;;5061230;28;20502;-69
2022/08/15 05:05:53;;;;;;;5.67;4.57;;;24.30;99.90;;;;;;5065486;28;21035;-69
2022/08/15 05:08:22;;;;;;;8.47;4.87;;;24.30;99.90;;;;;;5067108;28;20441;-69
2022/08/15 05:10:54;;;;;;;7.50;4.37;;;24.40;99.90;;;;;;5066668;28;20643;-69
2022/08/15 05:13:24;;;;;;;4.43;3.60;;;24.40;99.90;;;;;;5066117;28;20472;-69
2022/08/15 05:15:51;;;;;;;8.03;3.70;;;24.50;99.90;;;;;;5063009;28;20445;-69
2022/08/15 05:18:18;;;;;;;4.93;4.40;;;24.40;99.90;;;;;;5064373;28;20544;-69
2022/08/15 05:20:45;;;;;;;4.87;4.47;;;24.30;99.90;;;;;;5057411;28;20472;-69
2022/08/15 05:23:14;;;;;;;5.13;3.33;;;24.40;99.90;;;;;;5048168;28;20466;-69
2022/08/15 05:25:44;;;;;;;7.93;4.17;;;24.50;99.90;;;;;;5059134;28;20492;-69
2022/08/15 05:28:12;;;;;;;4.57;3.60;;;24.50;99.90;;;;;;5055578;28;20465;-69
2022/08/15 05:30:40;;;;;;;10.63;3.70;;;24.50;99.90;;;;;;5056980;28;20554;-69
2022/08/15 05:33:11;;;;;;;5.80;4.10;;;24.30;99.90;;;;;;5059441;28;20899;-69
2022/08/15 05:35:41;;;;;;;3.67;3.07;;;24.40;99.90;;;;;;5061077;28;20515;-69
2022/08/15 05:38:14;;;;;;;4.10;3.70;;;24.50;99.90;;;;;;5058887;28;20849;-69
2022/08/15 05:40:53;;;;;;;13.13;5.00;;;24.50;99.90;;;;;;5057905;28;20496;-69
2022/08/15 05:43:30;;;;;;;4.53;3.97;;;24.40;99.90;;;;;;5057805;28;20632;-69
2022/08/15 05:46:01;;;;;;;4.17;3.70;;;24.50;99.90;;;;;;5055802;28;20472;-69
2022/08/15 05:48:31;;;;;;;4.60;3.67;;;24.50;99.90;;;;;;5058562;28;20461;-69
2022/08/15 05:51:07;;;;;;;3.50;2.70;;;24.50;99.90;;;;;;5060100;28;20545;-69
2022/08/15 05:53:51;;;;;;;8.30;4.10;;;24.30;99.90;;;;;;5061259;28;20463;-69
2022/08/15 05:56:29;;;;;;;6.63;3.97;;;24.20;99.90;;;;;;5064058;28;20942;-69
2022/08/15 05:59:02;;;;;;;6.10;4.13;;;24.20;99.90;;;;;;5068163;28;20484;-68
2022/08/15 06:01:34;;;;;;;7.47;4.07;;;24.20;99.90;;;;;;5068686;28;20548;-69
2022/08/15 06:04:08;;;;;;;5.63;3.23;;;24.00;99.90;;;;;;5065835;28;20485;-69
2022/08/15 06:06:38;;;;;;;5.20;3.27;;;24.00;99.90;;;;;;5065794;28;20459;-68
2022/08/15 06:09:17;;;;;;;5.03;3.80;;;23.90;99.90;;;;;;5060329;28;20456;-68
2022/08/15 06:11:47;;;;;;;5.00;3.37;;;24.20;99.90;;;;;;5061014;28;20543;-68
2022/08/15 06:14:27;;;;;;;4.33;3.93;;;24.20;99.90;;;;;;5064486;28;21022;-69
2022/08/15 06:16:57;;;;;;;5.43;3.67;;;24.30;99.90;;;;;;5059086;28;20474;-68
2022/08/15 06:19:26;;;;;;;6.77;3.90;;;24.40;99.90;;;;;;5066786;28;20518;-69
2022/08/15 06:22:04;;;;;;;3.47;3.17;;;24.40;99.90;;;;;;5066778;28;20467;-69
2022/08/15 06:24:41;;;;;;;4.00;3.47;;;24.50;99.90;;;;;;5068428;28;20892;-69
2022/08/15 06:27:16;;;;;;;4.07;3.40;;;24.50;99.90;;;;;;5064900;28;20445;-69
2022/08/15 06:30:04;;;;;;;4.43;3.10;;;24.40;99.90;;;;;;5061753;28;20461;-69
2022/08/15 06:32:41;;;;;;;5.10;2.70;;;24.40;99.90;;;;;;5063818;28;20448;-69
2022/08/15 06:35:16;;;;;;;3.63;3.30;;;24.50;99.90;;;;;;5065871;28;20478;-69
2022/08/15 06:37:53;;;;;;;12.53;3.10;;;24.60;99.90;;;;;;5061672;28;20456;-69
2022/08/15 06:40:24;;;;;;;4.70;3.10;;;24.70;99.90;;;;;;5058556;28;20490;-69
2022/08/15 06:42:52;;;;;;;8.40;3.60;;;24.80;99.90;;;;;;5056504;28;20488;-69
2022/08/15 06:45:22;;;;;;;3.30;3.00;;;24.90;99.90;;;;;;5056664;28;20927;-69
2022/08/15 06:47:51;;;;;;;4.80;3.30;;;24.80;99.90;;;;;;5060679;28;20456;-68
2022/08/15 06:50:21;;;;;;;7.10;3.93;;;24.80;99.90;;;;;;5056449;28;20961;-69
2022/08/15 06:52:53;;;;;;;4.70;2.77;;;24.80;99.90;;;;;;5062871;28;20810;-69
2022/08/15 06:55:23;;;;;;;5.33;3.47;;;24.80;99.90;;;;;;5058671;28;20468;-69
2022/08/15 06:57:57;;;;;;;6.43;3.30;;;25.00;99.90;;;;;;5059338;28;20863;-67
2022/08/15 07:00:34;;;;;;;9.17;4.40;;;24.90;99.90;;;;;;5063382;28;20483;-68
2022/08/15 07:03:11;;;;;;;6.63;3.60;;;25.00;99.90;;;;;;5061145;28;20460;-67
2022/08/15 07:05:45;;;;;;;7.30;3.80;;;25.20;99.90;;;;;;5056202;28;20477;-69
2022/08/15 07:08:20;;;;;;;4.90;2.60;;;25.20;99.90;;;;;;5057328;28;20469;-69
2022/08/15 07:10:51;;;;;;;6.63;3.10;;;25.60;99.90;;;;;;5059819;28;20461;-68
2022/08/15 07:13:26;;;;;;;3.67;2.93;;;26.00;99.90;;;;;;5058525;28;20462;-68
2022/08/15 07:15:56;;;;;;;6.23;3.57;;;26.10;99.90;;;;;;5065049;28;20848;-69
2022/08/15 07:18:31;;;;;;;6.00;3.03;;;26.00;99.90;;;;;;5068088;28;20831;-68
2022/08/15 07:21:03;;;;;;;8.80;4.50;;;25.60;99.90;;;;;;5067079;28;20477;-68
2022/08/15 07:23:32;;;;;;;6.50;3.00;;;25.60;99.90;;;;;;5060604;28;20541;-68
2022/08/15 07:26:05;;;;;;;3.17;2.33;;;25.60;99.90;;;;;;5064502;28;21051;-68
2022/08/15 07:28:37;;;;;;;12.23;3.10;;;25.70;99.90;;;;;;5062068;28;20461;-68
2022/08/15 07:31:12;;;;;;;5.17;3.57;;;25.70;99.90;;;;;;5057052;28;20466;-68
2022/08/15 07:33:42;;;;;;;4.80;3.40;;;25.60;99.90;;;;;;5063480;28;20472;-68
2022/08/15 07:36:18;;;;;;;3.73;2.93;;;25.60;99.90;;;;;;5061304;28;20461;-69
2022/08/15 07:38:45;;;;;;;3.03;2.67;;;25.60;99.90;;;;;;5058915;28;20459;-68
2022/08/15 07:41:16;;;;;;;5.73;3.00;;;25.60;99.90;;;;;;5061576;28;20478;-68
2022/08/15 07:43:45;;;;;;;3.50;3.20;;;25.30;99.90;;;;;;5063680;28;20508;-68
2022/08/15 07:46:14;;;;;;;4.00;3.57;;;25.50;99.90;;;;;;5062429;28;20458;-68
2022/08/15 07:48:42;;;;;;;4.00;2.77;;;25.50;99.90;;;;;;5064630;28;20478;-68
2022/08/15 07:51:18;;;;;;;9.43;3.23;;;25.50;99.90;;;;;;5059208;28;20584;-68
2022/08/15 07:53:53;;;;;;;3.37;3.07;;;25.40;99.90;;;;;;5053897;28;20475;-68
2022/08/15 07:56:20;;;;;;;4.50;3.50;;;25.30;99.90;;;;;;5053362;28;20944;-68
2022/08/15 07:58:53;;;;;;;3.00;2.80;;;25.30;99.90;;;;;;5049298;28;20786;-68
2022/08/15 08:01:25;;;;;;;3.30;2.67;;;25.30;99.90;;;;;;5063735;28;20488;-69
2022/08/15 08:03:57;;;;;;;3.37;2.67;;;25.40;99.90;;;;;;5059649;28;20705;-69
2022/08/15 08:06:31;;;;;;;5.73;2.80;;;25.60;99.90;;;;;;5060147;28;20450;-69
2022/08/15 08:09:07;;;;;;;4.73;3.73;;;25.40;99.90;;;;;;5068614;28;20442;-69
2022/08/15 08:11:45;;;;;;;10.23;3.50;;;25.40;99.90;;;;;;5055063;28;20849;-68
2022/08/15 08:14:22;;;;;;;3.60;2.60;;;25.30;99.90;;;;;;5066195;28;20548;-69
2022/08/15 08:16:54;;;;;;;6.50;2.43;;;25.40;99.90;;;;;;5071287;28;20442;-69
2022/08/15 08:19:29;;;;;;;3.77;2.63;;;25.60;99.90;;;;;;5062660;28;20454;-68
2022/08/15 08:22:02;;;;;;;3.47;2.73;;;25.70;99.90;;;;;;5069362;28;20520;-69
2022/08/15 08:24:39;;;;;;;4.77;3.33;;;25.90;99.90;;;;;;5070829;22;20473;-70
2022/08/15 08:27:15;;;;;;;5.43;2.50;;;26.00;99.90;;;;;;4999380;28;20457;-72
2022/08/15 08:29:50;;;;;;;8.70;3.40;;;26.10;99.90;;;;;;4996917;28;20933;-69
2022/08/15 08:32:27;;;;;;;7.10;3.93;;;26.00;99.90;;;;;;5001320;28;20448;-71
2022/08/15 08:34:59;;;;;;;7.60;2.80;;;25.90;99.90;;;;;;5005112;28;20492;-71
2022/08/15 08:37:32;;;;;;;6.50;3.20;;;26.00;99.90;;;;;;5005321;28;20963;-71
2022/08/15 08:42:50;;;;;;;3.00;2.67;;;26.10;99.90;;;;;;5007869;28;20838;-71
2022/08/15 08:45:29;;;;;;;2.83;2.63;;;26.20;99.90;;;;;;5003301;28;21035;-70
2022/08/15 08:48:19;;;;;;;3.40;2.90;;;26.30;99.90;;;;;;4997612;28;20532;-71
2022/08/15 08:50:54;;;;;;;4.30;2.37;;;26.00;99.90;;;;;;5004217;28;20536;-72
2022/08/15 08:53:30;;;;;;;3.07;2.77;;;26.00;99.90;;;;;;5007859;28;20559;-70
2022/08/15 08:56:03;;;;;;;5.40;3.53;;;25.90;99.90;;;;;;5005009;28;20551;-70
2022/08/15 08:58:36;;;;;;;8.33;3.03;;;25.80;99.90;;;;;;4997284;28;20474;-71
2022/08/15 09:01:07;;;;;;;5.73;3.37;;;25.80;99.90;;;;;;5003981;28;20571;-71
2022/08/15 09:03:39;;;;;;;4.50;2.83;;;25.90;99.90;;;;;;5001503;28;20866;-70
2022/08/15 09:06:10;;;;;;;4.07;2.80;;;25.90;99.90;;;;;;5003588;28;20494;-72
2022/08/15 09:08:40;;;;;;;4.13;3.00;;;25.90;99.90;;;;;;5003906;28;20486;-72
2022/08/15 09:11:10;;;;;;;3.40;2.73;;;25.90;99.90;;;;;;5001281;28;20464;-71
2022/08/15 09:13:43;;;;;;;4.27;3.27;;;25.80;99.90;;;;;;5001115;28;20579;-71
2022/08/15 09:16:15;;;;;;;3.10;2.73;;;25.40;99.90;;;;;;5002161;28;20575;-71
2022/08/15 09:18:49;;;;;;;2.77;2.50;;;25.40;99.90;;;;;;5004700;28;20574;-70
2022/08/15 09:21:17;;;;;;;4.33;3.10;;;25.40;99.90;;;;;;5001760;28;20846;-71
2022/08/15 09:23:47;;;;;;;14.20;3.00;;;25.30;99.90;;;;;;5002490;28;20488;-72
2022/08/15 09:26:21;;;;;;;7.17;2.43;;;25.30;99.90;;;;;;5003889;28;20475;-71
2022/08/15 09:29:05;;;;;;;7.07;3.10;;;25.30;99.90;;;;;;5000680;28;20458;-72
2022/08/15 09:31:38;;;;;;;4.97;3.20;;;25.50;99.90;;;;;;5005401;28;20442;-71
2022/08/15 09:34:17;;;;;;;13.30;3.47;;;25.80;99.90;;;;;;5010292;28;20536;-71
2022/08/15 09:37:06;;;;;;;5.17;3.30;;;25.80;99.90;;;;;;5009254;28;20469;-72
2022/08/15 09:40:12;;;;;;;3.77;3.03;;;25.90;99.90;;;;;;5007529;28;20828;-70
2022/08/15 09:42:55;;;;;;;5.83;2.97;;;25.70;99.90;;;;;;5007755;28;20446;-71
2022/08/15 09:45:40;;;;;;;5.17;3.77;;;25.80;99.90;;;;;;5004299;28;21178;-72
2022/08/15 09:48:39;;;;;;;4.60;3.60;;;25.70;99.90;;;;;;5002930;28;20453;-70
2022/08/15 09:51:33;;;;;;;6.97;3.27;;;25.70;99.90;;;;;;5001533;28;20460;-72
2022/08/15 09:54:08;;;;;;;6.80;3.50;;;25.70;99.90;;;;;;5003256;28;20467;-71
2022/08/15 09:56:37;;;;;;;9.60;4.53;;;26.00;99.90;;;;;;5006204;28;20448;-71
2022/08/15 09:59:15;;;;;;;6.47;3.10;;;26.30;99.90;;;;;;5004391;28;20452;-71
2022/08/15 10:01:45;;;;;;;5.10;2.67;;;26.80;99.90;;;;;;5003745;28;20491;-71
2022/08/15 10:04:17;;;;;;;3.07;2.33;;;27.20;99.90;;;;;;5013005;28;21016;-71
2022/08/15 10:07:32;;;;;;;4.77;2.73;;;27.00;99.90;;;;;;5003596;28;20455;-71
2022/08/15 10:10:13;;;;;;;4.30;3.17;;;27.00;99.90;;;;;;5003684;28;20465;-71
2022/08/15 10:13:00;;;;;;;7.13;3.30;;;27.40;99.90;;;;;;5003066;28;20455;-68
2022/08/15 10:15:41;;;;;;;15.90;3.67;;;27.60;99.90;;;;;;5000833;28;20494;-71
2022/08/15 10:18:09;;;;;;;3.30;3.00;;;27.40;99.90;;;;;;5001192;28;20453;-71
2022/08/15 10:20:53;;;;;;;4.40;3.20;;;27.60;99.90;;;;;;5005993;28;20795;-70
2022/08/15 10:23:26;;;;;;;4.37;2.90;;;27.90;99.90;;;;;;5004803;28;20958;-71
2022/08/15 10:26:13;;;;;;;4.70;2.73;;;27.80;99.90;;;;;;5003829;28;20502;-71
2022/08/15 10:28:41;;;;;;;6.13;3.60;;;27.80;99.90;;;;;;5003491;28;20553;-70
2022/08/15 10:31:26;;;;;;;3.87;2.90;;;27.80;99.90;;;;;;5001837;28;20445;-70
2022/08/15 10:33:59;;;;;;;5.60;3.30;;;28.20;99.90;;;;;;5003199;28;20875;-72
2022/08/15 10:36:30;;;;;;;4.13;3.30;;;28.30;99.90;;;;;;5003669;28;20478;-71
2022/08/15 10:39:09;;;;;;;11.13;3.97;;;28.10;99.90;;;;;;5008785;28;20450;-70
2022/08/15 10:41:48;;;;;;;5.50;2.70;;;28.30;99.90;;;;;;5004797;28;21145;-70
2022/08/15 10:44:23;;;;;;;4.20;3.03;;;28.60;99.90;;;;;;5003014;28;20558;-69
2022/08/15 10:47:06;;;;;;;6.37;3.30;;;28.80;99.90;;;;;;5003569;28;20450;-70
2022/08/15 10:49:42;;;;;;;7.27;2.60;;;29.00;99.90;;;;;;5005083;28;20445;-70
2022/08/15 10:52:28;;;;;;;5.13;3.83;;;29.00;99.90;;;;;;4999917;28;20441;-70
2022/08/15 10:55:20;;;;;;;3.40;2.90;;;29.30;99.90;;;;;;5003222;28;20576;-70
2022/08/15 10:57:50;;;;;;;3.30;3.00;;;29.70;99.90;;;;;;5005316;28;20456;-69
2022/08/15 11:00:41;;;;;;;8.53;3.70;;;29.70;99.90;;;;;;5008659;28;20848;-71
2022/08/15 11:03:18;;;;;;;4.53;3.23;;;30.00;99.90;;;;;;5002082;28;20466;-70
2022/08/15 11:05:55;;;;;;;3.57;3.13;;;30.40;99.90;;;;;;5005310;28;20462;-70
2022/08/15 11:08:23;;;;;;;5.20;3.00;;;30.70;98.90;;;;;;5003880;28;21083;-69
2022/08/15 11:10:50;;;;;;;7.63;3.47;;;30.50;98.10;;;;;;5002367;28;20462;-70
2022/08/15 11:13:23;;;;;;;4.03;3.50;;;30.50;99.20;;;;;;5005596;28;20441;-70
2022/08/15 11:15:54;;;;;;;4.77;3.03;;;31.80;97.90;;;;;;5006800;28;20466;-70
2022/08/15 11:18:28;;;;;;;3.67;2.70;;;33.20;94.70;;;;;;5006681;28;20560;-71
2022/08/15 11:21:01;;;;;;;7.93;3.90;;;33.80;94.00;;;;;;5001140;28;20489;-70
2022/08/15 11:23:35;;;;;;;5.97;3.40;;;34.90;89.20;;;;;;5006567;28;20842;-70
2022/08/15 11:26:04;;;;;;;3.10;2.73;;;35.20;87.00;;;;;;5006335;28;21071;-70
2022/08/15 11:28:32;;;;;;;6.03;2.83;;;34.90;87.40;;;;;;5002381;28;20866;-70
2022/08/15 11:31:03;;;;;;;2.57;2.37;;;33.90;89.20;;;;;;5000702;28;21023;-71
2022/08/15 11:33:41;;;;;;;5.13;3.40;;;32.80;89.90;;;;;;5008023;28;20440;-71
2022/08/15 11:36:11;;;;;;;3.77;3.17;;;32.20;91.20;;;;;;5002370;28;20483;-70
2022/08/15 11:38:42;;;;;;;4.10;3.00;;;31.30;92.30;;;;;;5006198;28;20450;-70
2022/08/15 11:41:10;;;;;;;3.83;3.23;;;31.10;92.60;;;;;;5003773;28;20492;-70
2022/08/15 11:43:40;;;;;;;6.50;3.37;;;31.10;93.30;;;;;;5007563;28;20457;-70
2022/08/15 11:46:07;;;;;;;4.50;3.50;;;31.30;93.90;;;;;;5006864;28;20477;-72
2022/08/15 11:48:39;;;;;;;3.60;3.30;;;31.30;93.10;;;;;;5002460;28;20494;-71
2022/08/15 11:51:10;;;;;;;5.63;3.20;;;30.70;94.80;;;;;;5003826;28;20456;-71
2022/08/15 11:53:41;;;;;;;4.73;3.90;;;30.80;94.70;;;;;;5001697;28;20448;-71
2022/08/15 11:56:09;;;;;;;4.80;3.13;;;30.60;94.20;;;;;;5003822;28;20488;-70
2022/08/15 11:58:44;;;;;;;5.80;3.20;;;30.80;94.80;;;;;;5002182;28;20867;-72
2022/08/15 12:01:27;;;;;;;5.27;4.03;;;30.80;94.80;;;;;;5004712;28;20483;-71
2022/08/15 12:04:04;;;;;;;4.33;3.10;;;30.70;95.10;;;;;;5004721;28;20492;-71
2022/08/15 12:06:33;;;;;;;10.70;3.50;;;30.50;95.20;;;;;;5006211;28;20529;-70
2022/08/15 12:09:10;;;;;;;6.60;3.30;;;30.50;95.40;;;;;;5012903;28;20444;-70
2022/08/15 12:11:44;;;;;;;7.03;3.23;;;30.60;95.80;;;;;;5002533;28;20821;-70
2022/08/15 12:14:18;;;;;;;5.60;2.80;;;30.60;95.40;;;;;;5000574;28;20469;-70
2022/08/15 12:16:48;;;;;;;3.93;3.03;;;30.10;96.10;;;;;;5001822;28;20440;-70
2022/08/15 12:19:29;;;;;;;6.60;3.13;;;30.10;96.90;;;;;;5007283;28;20455;-70
2022/08/15 12:21:58;;;;;;;7.23;3.83;;;30.10;97.00;;;;;;5002140;28;21068;-70
2022/08/15 12:24:27;;;;;;;3.63;2.97;;;30.30;97.00;;;;;;5006347;28;20495;-72
2022/08/15 12:26:57;;;;;;;4.30;3.90;;;30.50;97.00;;;;;;5000200;28;20516;-71
2022/08/15 12:29:25;;;;;;;7.93;4.10;;;30.10;96.70;;;;;;5006258;28;20835;-71
2022/08/15 12:31:53;;;;;;;4.67;4.17;;;29.70;97.90;;;;;;4999744;28;21174;-70
2022/08/15 12:34:23;;;;;;;3.37;3.07;;;29.80;97.60;;;;;;5003716;28;20456;-70
2022/08/15 12:36:52;;;;;;;6.07;3.73;;;29.80;98.10;;;;;;5003576;28;20823;-71
2022/08/15 12:39:20;;;;;;;8.63;3.40;;;29.50;98.00;;;;;;4999145;28;20473;-70
2022/08/15 12:41:50;;;;;;;7.80;4.13;;;29.40;98.50;;;;;;5005333;28;20492;-70
2022/08/15 12:44:22;;;;;;;7.20;4.17;;;29.50;98.90;;;;;;5003749;28;20950;-70
2022/08/15 12:46:50;;;;;;;4.77;3.77;;;29.60;98.70;;;;;;5002907;28;20444;-71
2022/08/15 12:49:17;;;;;;;3.70;3.33;;;29.70;98.50;;;;;;4994752;28;20856;-71
2022/08/15 12:51:45;;;;;;;5.63;3.17;;;29.80;98.70;;;;;;5004870;28;20472;-71
2022/08/15 12:54:13;;;;;;;4.40;3.43;;;29.50;98.00;;;;;;4998203;28;20467;-71
2022/08/15 12:56:41;;;;;;;3.80;2.83;;;29.20;98.00;;;;;;4996759;28;20835;-71
2022/08/15 12:59:08;;;;;;;3.60;2.80;;;29.10;98.60;;;;;;5004098;28;20491;-71
2022/08/15 13:01:37;;;;;;;5.57;3.10;;;28.90;98.90;;;;;;5000060;28;20487;-71
2022/08/15 13:04:06;;;;;;;5.07;3.37;;;28.60;99.90;;;;;;5003586;28;20443;-71
2022/08/15 13:06:46;;;;;;;6.30;3.00;;;28.50;99.90;;;;;;5010010;28;20464;-71
2022/08/15 13:09:16;;;;;;;4.50;3.93;;;28.50;99.90;;;;;;5010185;28;20953;-71
2022/08/15 13:11:46;;;;;;;6.00;3.50;;;28.30;99.90;;;;;;5001454;28;20449;-71
2022/08/15 13:14:16;;;;;;;6.40;2.80;;;28.30;99.90;;;;;;5005535;28;20444;-71